• Join FlightAware (Why Join?)
  • Login
  • US Flag 
01:39PM EST


 

Airport Tracker/Info


-or-


 

Live Flight TrackerFlight Track Log ✈ SWA1254 ✈ 30-Mar-2014 ✈ KBUF - KMCO

Flight Track Log - Related Links

Times and Time Zones

All times are in EDT time to prevent confusion due to time zone crossing. See the SWA1254 flight status page for this flight to view local times or setup timezone preferences in your user account.

Time Position Orientation Groundspeed Altitude Reporting Facility
EDT Latitude Longitude Course Direction KTS MPH feet Rate Location/Type
07:50PM 42.9500 -78.7167 56° Northeast 161 185 1,600  Level Buffalo TRACON
07:51PM 42.9667 -78.6833 56° Northeast 171 197 2,600 2,340 Climbing Buffalo TRACON
07:52PM 42.9522 -78.6131 106° East 254 292 5,600 3,060 Climbing Cleveland Center
07:53PM 42.8711 -78.6558 201° Southwest 304 350 9,100 2,640 Climbing Cleveland Center
07:54PM 42.7894 -78.7139 208° Southwest 340 391 11,100 2,520 Climbing Cleveland Center
07:55PM 42.6917 -78.7806 207° Southwest 389 448 14,400 3,000 Climbing Cleveland Center
07:56PM 42.5922 -78.8483 207° Southwest 399 459 17,300 2,640 Climbing Cleveland Center
07:57PM 42.4878 -78.9186 206° Southwest 415 478 19,900 2,640 Climbing Cleveland Center
07:58PM 42.3667 -78.9978 206° Southwest 432 497 22,800 2,400 Climbing Cleveland Center
07:59PM 42.2481 -79.0372 194° South 441 507 24,900 1,920 Climbing Cleveland Center
08:00PM 42.1253 -79.0783 194° South 454 522 26,900 1,980 Climbing Cleveland Center
08:01PM 41.9767 -79.1289 194° South 458 527 29,000 1,620 Climbing Cleveland Center
08:02PM 41.8631 -79.1672 194° South 471 542 30,300 1,500 Climbing Cleveland Center
08:03PM 41.7358 -79.2094 194° South 472 543 32,100 1,680 Climbing Cleveland Center
08:04PM 41.6003 -79.2569 195° South 468 539 33,800 1,200 Climbing Cleveland Center
08:05PM 41.4767 -79.2983 194° South 462 532 34,700 900 Climbing Cleveland Center
08:06PM 41.3489 -79.3397 194° South 469 540 35,700 1,200 Climbing Cleveland Center
08:07PM 41.1956 -79.3908 194° South 475 547 37,200 1,080 Climbing Cleveland Center
08:08PM 41.0717 -79.4319 194° South 463 533 38,000 360 Climbing Cleveland Center
08:09PM 40.9481 -79.4719 194° South 455 524 38,000  Level Cleveland Center
08:10PM 40.8253 -79.5122 194° South 455 524 38,000  Level Cleveland Center
08:11PM 40.7028 -79.5522 194° South 454 522 38,000  Level Cleveland Center
08:12PM 40.5803 -79.5906 193° South 453 521 38,000  Level Cleveland Center
08:13PM 40.4581 -79.6297 194° South 450 518 38,000  Level Cleveland Center
08:14PM 40.3344 -79.6708 194° South 451 519 38,000  Level Cleveland Center
08:15PM 40.1853 -79.7181 194° South 451 519 38,000  Level Cleveland Center
08:16PM 40.0622 -79.7572 194° South 452 520 38,000  Level Cleveland Center
08:17PM 39.9386 -79.7981 194° South 454 522 38,000  Level Cleveland Center
08:18PM 39.8156 -79.8361 193° South 455 524 38,000  Level Cleveland Center
08:19PM 39.6906 -79.8758 194° South 458 527 38,000  Level Cleveland Center
08:20PM 39.5656 -79.9142 193° South 459 528 38,000  Level Cleveland Center
08:22PM 39.4397 -79.9542 194° South 461 531 38,000  Level Cleveland Center
08:23PM 39.2881 -80.0000 193° South 463 533 38,000  Level Cleveland Center
08:24PM 39.1611 -80.0411 194° South 467 537 38,000  Level Cleveland Center
08:25PM 39.0350 -80.0806 194° South 467 537 38,000  Level Cleveland Center
08:26PM 38.9053 -80.0956 185° South 467 537 38,000  Level Cleveland Center
08:27PM 38.7775 -80.1375 194° South 479 551 38,000  Level Washington Center
08:28PM 38.6569 -80.1833 197° South 468 539 38,000  Level Washington Center
08:29PM 38.5319 -80.2286 196° South 468 539 38,000  Level Washington Center
08:30PM 38.3969 -80.2731 194° South 461 531 38,000  Level Washington Center
08:31PM 38.2722 -80.3156 195° South 461 531 38,000  Level Washington Center
08:32PM 38.1517 -80.3581 195° South 461 531 38,000  Level Washington Center
08:33PM 38.0269 -80.4003 195° South 461 531 38,000  Level Washington Center
08:34PM 37.9125 -80.4403 195° South 466 536 38,000  Level Washington Center
08:35PM 37.7878 -80.4822 195° South 466 536 38,000  Level Washington Center
08:37PM 37.5353 -80.5664 195° South 468 539 38,000  Level Atlanta Center
08:38PM 37.4258 -80.6025 195° South 468 539 38,000  Level Atlanta Center
08:39PM 37.3019 -80.6447 195° South 468 539 38,000  Level Atlanta Center
08:40PM 37.1781 -80.6864 195° South 468 539 38,000  Level Atlanta Center
08:41PM 37.0394 -80.7208 191° South 468 539 38,000  Level Atlanta Center
08:42PM 36.9106 -80.7342 185° South 468 539 38,000  Level Atlanta Center
08:43PM 36.7794 -80.7472 185° South 468 539 38,000  Level Atlanta Center
08:44PM 36.6714 -80.7569 184° South 456 525 38,000  Level Atlanta Center
08:45PM 36.5444 -80.7700 185° South 457 526 38,000  Level Atlanta Center
08:46PM 36.4114 -80.7856 185° South 467 537 38,000  Level Atlanta Center
08:47PM 36.2825 -80.8011 186° South 472 543 38,000  Level Atlanta Center
08:48PM 36.1494 -80.8142 185° South 477 549 38,000  Level Atlanta Center
08:49PM 36.0183 -80.8297 185° South 477 549 38,000  Level Atlanta Center
08:50PM 35.8872 -80.8425 185° South 477 549 38,000  Level Atlanta Center
08:51PM 35.7417 -80.8586 185° South 482 555 38,000  Level Atlanta Center
08:52PM 35.6022 -80.8717 184° South 482 555 38,000  Level Atlanta Center
08:53PM 35.4692 -80.8869 185° South 482 555 38,000  Level Atlanta Center
08:54PM 35.3339 -80.9022 185° South 482 555 38,000  Level Atlanta Center
08:55PM 35.1986 -80.9150 184° South 489 563 38,000  Level Atlanta Center
08:56PM 35.0633 -80.9303 185° South 489 563 38,000  Level Atlanta Center
08:57PM 34.9281 -80.9456 185° South 494 568 38,000  Level Atlanta Center
09:00PM 34.4314 -80.9969 185° South 499 574 38,000  Level Jacksonville Center
09:01PM 34.2939 -81.0125 185° South 494 568 38,000  Level Jacksonville Center
09:02PM 34.1481 -81.0258 184° South 489 563 38,000  Level Jacksonville Center
09:03PM 34.1494 -81.0247 184° South  Level FlightAware Approximate
09:03PM 34.0147 -81.0386 185° South 483 556 38,000  Level Jacksonville Center
09:04PM 33.8814 -81.0514 185° South 483 556 38,000  Level Jacksonville Center
09:05PM 33.7731 -81.0611 184° South 483 556 38,000 -60 Level Jacksonville Center
09:06PM 33.6231 -81.0767 185° South 489 563 37,900 -600 Descending Jacksonville Center
09:07PM 33.4875 -81.0869 184° South 489 563 36,900 -1,140 Descending Jacksonville Center
09:08PM 33.3519 -81.0972 184° South 489 563 35,700 -1,080 Descending Jacksonville Center
09:09PM 33.2186 -81.1147 186° South 489 563 34,800 -900 Descending Jacksonville Center
09:10PM 33.0831 -81.1250 184° South 489 563 34,000 -420 Descending Jacksonville Center
09:11PM 32.9414 -81.1328 183° South 500 575 34,000  Level Jacksonville Center
09:12PM 32.8017 -81.1453 184° South 500 575 34,000  Level Jacksonville Center
09:13PM 32.6661 -81.1578 184° South 494 568 34,000  Level Jacksonville Center
09:14PM 32.5139 -81.1706 184° South 499 574 34,000  Level Jacksonville Center
09:15PM 32.3950 -81.1800 184° South 488 562 34,000  Level Jacksonville Center
09:16PM 32.2636 -81.1900 184° South 482 555 34,000  Level Jacksonville Center
09:17PM 32.1322 -81.1997 184° South 477 549 34,000  Level Jacksonville Center
09:18PM 32.0028 -81.1947 178° South 477 549 34,000  Level Jacksonville Center
09:19PM 31.8753 -81.1922 179° South 471 542 34,000 -540 Level Jacksonville Center
09:20PM 31.7353 -81.1875 178° South 460 529 33,000 -1,320 Descending Jacksonville Center
09:21PM 31.6017 -81.1828 178° South 473 544 31,400 -1,380 Descending Jacksonville Center
09:22PM 31.4764 -81.1800 179° South 487 560 30,300 -720 Descending Jacksonville Center
09:23PM 31.3219 -81.1756 179° South 499 574 30,000 -180 Descending Jacksonville Center
09:24PM 31.1819 -81.1708 178° South 499 574 30,000  Level Jacksonville Center
09:25PM 31.0461 -81.1661 178° South 499 574 30,000  Level Jacksonville Center
09:26PM 30.9061 -81.1614 178° South 499 574 30,000  Level Jacksonville Center
09:27PM 30.7683 -81.1592 179° South 499 574 30,000 -240 Level Jacksonville Center
09:28PM 30.6347 -81.1542 178° South 494 568 29,600 -720 Descending Jacksonville Center
09:29PM 30.4967 -81.1494 178° South 494 568 28,600 -1,080 Descending Jacksonville Center
09:30PM 30.3611 -81.1447 178° South 494 568 27,500 -1,080 Descending Jacksonville Center
09:31PM 30.2336 -81.1422 179° South 478 550 26,500 -1,020 Descending Jacksonville Center
09:32PM 30.1061 -81.1397 179° South 467 537 25,500 -1,020 Descending Jacksonville Center
09:33PM 29.9808 -81.1350 178° South 460 529 24,500 -780 Descending Jacksonville Center
09:34PM 29.8703 -81.1322 179° South 455 524 24,000 -660 Descending Jacksonville Center
09:35PM 29.7469 -81.1272 178° South 450 518 23,200 -900 Descending Jacksonville Center
09:36PM 29.6258 -81.1244 179° South 440 506 22,200 -1,140 Descending Jacksonville Center
09:37PM 29.5069 -81.1244 180° South 434 499 21,000 -1,860 Descending Jacksonville Center
09:38PM 29.3814 -81.1147 176° South 417 480 18,600 -2,220 Descending Jacksonville Center
09:39PM 29.2667 -81.1097 178° South 417 480 16,600 -2,040 Descending Jacksonville Center
09:40PM 29.1581 -81.1022 177° South 402 463 14,500 -2,100 Descending Jacksonville Center
09:41PM 29.0494 -81.0922 175° South 395 455 12,400 -1,320 Descending Jacksonville Center
09:42PM 28.9469 -81.0775 173° South 385 443 11,900 -540 Descending Jacksonville Center
09:43PM 28.8667 -81.0667 173° South 363 418 11,500 -840 Descending Orlando TRACON
09:44PM 28.7667 -81.1000 196° South 348 400 10,400 -1,080 Descending Orlando TRACON
09:45PM 28.6833 -81.1167 190° South 317 365 9,400 -960 Descending Orlando TRACON
09:46PM 28.5833 -81.1333 188° South 314 361 8,500 -1,140 Descending Orlando TRACON
09:47PM 28.5000 -81.1667 199° South 314 361 7,000 -1,380 Descending Orlando TRACON
09:48PM 28.4333 -81.1833 192° South 305 351 6,000 -720 Descending Orlando TRACON
09:49PM 28.3667 -81.1833 180° South 261 300 5,800 -900 Descending Orlando TRACON
09:50PM 28.3000 -81.1833 180° South 257 296 4,400 -1,500 Descending Orlando TRACON
09:51PM 28.2500 -81.2333 221° Southwest 209 241 2,900 -1,200 Descending Orlando TRACON
09:52PM 28.2667 -81.2667 300° West 180 207 2,000 -480 Descending Orlando TRACON
09:53PM 28.3167 -81.2833 344° North 157 181 2,000 -300 Level Orlando TRACON
09:54PM 28.3500 -81.2833 360° North 130 150 1,400 -720 Descending Orlando TRACON
09:55PM 28.3833 -81.2833 360° North 138 159 600 -840 Descending Orlando TRACON
09:57PM 28.4167 -81.3000 336° Northwest  Level FlightAware Approximate
10:04PM 28.4294 -81.3090 336° Northwest  Level Estimated
10:05PM 28.4294 -81.3090 336° Northwest  Level Estimated
10:06PM 28.4294 -81.3090 336° Northwest  Level Estimated
10:07PM 28.4294 -81.3090 336° Northwest  Level Estimated